sensor_id;sensor_type;location;lat;lon;timestamp;P1;durP1;ratioP1;P2;durP2;ratioP2
56233;SDS011;42141;53.240;6.580;2022-08-03T00:01:42;9.98;;;1.27;;
56233;SDS011;42141;53.240;6.580;2022-08-03T00:04:09;6.47;;;1.27;;
56233;SDS011;42141;53.240;6.580;2022-08-03T00:06:35;3.97;;;1.63;;
56233;SDS011;42141;53.240;6.580;2022-08-03T00:09:02;8.75;;;1.52;;
56233;SDS011;42141;53.240;6.580;2022-08-03T00:11:31;4.70;;;1.20;;
56233;SDS011;42141;53.240;6.580;2022-08-03T00:13:57;4.63;;;0.80;;
56233;SDS011;42141;53.240;6.580;2022-08-03T00:16:22;5.97;;;1.30;;
56233;SDS011;42141;53.240;6.580;2022-08-03T00:18:51;6.55;;;1.25;;
56233;SDS011;42141;53.240;6.580;2022-08-03T00:21:16;10.15;;;1.70;;
56233;SDS011;42141;53.240;6.580;2022-08-03T00:23:42;8.48;;;2.40;;
56233;SDS011;42141;53.240;6.580;2022-08-03T00:26:08;4.25;;;1.38;;
56233;SDS011;42141;53.240;6.580;2022-08-03T00:28:34;6.10;;;1.25;;
56233;SDS011;42141;53.240;6.580;2022-08-03T00:31:00;6.65;;;1.63;;
56233;SDS011;42141;53.240;6.580;2022-08-03T00:33:25;7.35;;;1.30;;
56233;SDS011;42141;53.240;6.580;2022-08-03T00:35:51;7.88;;;1.17;;
56233;SDS011;42141;53.240;6.580;2022-08-03T00:38:17;9.52;;;1.33;;
56233;SDS011;42141;53.240;6.580;2022-08-03T00:40:44;5.07;;;1.02;;
56233;SDS011;42141;53.240;6.580;2022-08-03T00:43:09;6.57;;;1.15;;
56233;SDS011;42141;53.240;6.580;2022-08-03T00:45:38;5.10;;;1.17;;
56233;SDS011;42141;53.240;6.580;2022-08-03T00:48:05;8.85;;;1.75;;
56233;SDS011;42141;53.240;6.580;2022-08-03T00:50:37;5.40;;;1.20;;
56233;SDS011;42141;53.240;6.580;2022-08-03T00:53:05;6.82;;;1.40;;
56233;SDS011;42141;53.240;6.580;2022-08-03T00:55:32;4.45;;;1.23;;
56233;SDS011;42141;53.240;6.580;2022-08-03T00:57:58;7.32;;;1.65;;
56233;SDS011;42141;53.240;6.580;2022-08-03T01:00:26;4.70;;;1.77;;
56233;SDS011;42141;53.240;6.580;2022-08-03T01:02:52;6.15;;;1.52;;
56233;SDS011;42141;53.240;6.580;2022-08-03T01:05:18;5.43;;;1.25;;
56233;SDS011;42141;53.240;6.580;2022-08-03T01:10:52;10.60;;;2.70;;
56233;SDS011;42141;53.240;6.580;2022-08-03T01:13:40;7.70;;;1.42;;
56233;SDS011;42141;53.240;6.580;2022-08-03T01:16:47;5.07;;;1.10;;
56233;SDS011;42141;53.240;6.580;2022-08-03T01:30:46;5.22;;;1.00;;
56233;SDS011;42141;53.240;6.580;2022-08-03T01:33:14;5.35;;;1.08;;
56233;SDS011;42141;53.240;6.580;2022-08-03T01:35:46;5.47;;;1.40;;
56233;SDS011;42141;53.240;6.580;2022-08-03T01:38:23;6.85;;;1.23;;
56233;SDS011;42141;53.240;6.580;2022-08-03T01:40:52;8.45;;;1.27;;
56233;SDS011;42141;53.240;6.580;2022-08-03T01:43:20;6.00;;;1.77;;
56233;SDS011;42141;53.240;6.580;2022-08-03T01:48:19;2.53;;;1.00;;
56233;SDS011;42141;53.240;6.580;2022-08-03T01:50:46;6.00;;;1.08;;
56233;SDS011;42141;53.240;6.580;2022-08-03T01:53:13;5.53;;;1.67;;
56233;SDS011;42141;53.240;6.580;2022-08-03T01:55:42;8.77;;;0.82;;
56233;SDS011;42141;53.240;6.580;2022-08-03T01:58:12;4.00;;;1.03;;
56233;SDS011;42141;53.240;6.580;2022-08-03T02:00:40;7.15;;;1.52;;
56233;SDS011;42141;53.240;6.580;2022-08-03T02:03:07;6.10;;;1.15;;
56233;SDS011;42141;53.240;6.580;2022-08-03T02:05:36;4.40;;;1.20;;
56233;SDS011;42141;53.240;6.580;2022-08-03T02:08:04;5.80;;;1.08;;
56233;SDS011;42141;53.240;6.580;2022-08-03T02:10:33;7.43;;;0.98;;
56233;SDS011;42141;53.240;6.580;2022-08-03T02:13:00;6.07;;;1.05;;
56233;SDS011;42141;53.240;6.580;2022-08-03T02:15:27;5.28;;;1.33;;
56233;SDS011;42141;53.240;6.580;2022-08-03T02:17:55;6.25;;;1.35;;
56233;SDS011;42141;53.240;6.580;2022-08-03T02:20:22;3.30;;;0.93;;
56233;SDS011;42141;53.240;6.580;2022-08-03T02:22:49;9.95;;;1.35;;
56233;SDS011;42141;53.240;6.580;2022-08-03T02:25:14;7.28;;;1.58;;
56233;SDS011;42141;53.240;6.580;2022-08-03T02:27:50;8.45;;;0.98;;
56233;SDS011;42141;53.240;6.580;2022-08-03T02:30:19;6.68;;;1.67;;
56233;SDS011;42141;53.240;6.580;2022-08-03T02:32:50;3.85;;;1.08;;
56233;SDS011;42141;53.240;6.580;2022-08-03T02:35:19;7.13;;;1.02;;
56233;SDS011;42141;53.240;6.580;2022-08-03T02:37:47;4.28;;;1.10;;
56233;SDS011;42141;53.240;6.580;2022-08-03T02:40:16;5.78;;;0.90;;
56233;SDS011;42141;53.240;6.580;2022-08-03T02:42:44;4.78;;;1.40;;
56233;SDS011;42141;53.240;6.580;2022-08-03T02:45:12;1.80;;;0.75;;
56233;SDS011;42141;53.240;6.580;2022-08-03T02:47:41;8.27;;;1.38;;
56233;SDS011;42141;53.240;6.580;2022-08-03T02:50:08;5.32;;;1.08;;
56233;SDS011;42141;53.240;6.580;2022-08-03T02:52:37;6.45;;;1.58;;
56233;SDS011;42141;53.240;6.580;2022-08-03T02:55:03;8.18;;;1.23;;
56233;SDS011;42141;53.240;6.580;2022-08-03T02:57:31;5.13;;;1.17;;
56233;SDS011;42141;53.240;6.580;2022-08-03T03:00:00;4.93;;;1.25;;
56233;SDS011;42141;53.240;6.580;2022-08-03T03:02:26;5.35;;;1.67;;
56233;SDS011;42141;53.240;6.580;2022-08-03T03:04:53;8.43;;;1.42;;
56233;SDS011;42141;53.240;6.580;2022-08-03T03:07:20;5.07;;;1.65;;
56233;SDS011;42141;53.240;6.580;2022-08-03T03:09:46;8.15;;;2.05;;
56233;SDS011;42141;53.240;6.580;2022-08-03T03:12:12;8.70;;;1.60;;
56233;SDS011;42141;53.240;6.580;2022-08-03T03:14:40;11.43;;;1.15;;
56233;SDS011;42141;53.240;6.580;2022-08-03T03:17:06;5.05;;;1.23;;
56233;SDS011;42141;53.240;6.580;2022-08-03T03:19:35;6.18;;;1.40;;
56233;SDS011;42141;53.240;6.580;2022-08-03T03:22:03;5.32;;;1.13;;
56233;SDS011;42141;53.240;6.580;2022-08-03T03:24:31;12.25;;;1.38;;
56233;SDS011;42141;53.240;6.580;2022-08-03T03:26:58;5.97;;;1.35;;
56233;SDS011;42141;53.240;6.580;2022-08-03T03:29:29;6.47;;;1.48;;
56233;SDS011;42141;53.240;6.580;2022-08-03T03:31:56;12.18;;;1.50;;
56233;SDS011;42141;53.240;6.580;2022-08-03T03:34:21;9.05;;;1.65;;
56233;SDS011;42141;53.240;6.580;2022-08-03T03:36:48;9.35;;;1.88;;
56233;SDS011;42141;53.240;6.580;2022-08-03T03:39:13;6.95;;;1.55;;
56233;SDS011;42141;53.240;6.580;2022-08-03T03:41:39;8.07;;;1.50;;
56233;SDS011;42141;53.240;6.580;2022-08-03T03:44:05;7.43;;;1.48;;
56233;SDS011;42141;53.240;6.580;2022-08-03T03:46:31;8.10;;;1.70;;
56233;SDS011;42141;53.240;6.580;2022-08-03T03:48:56;9.57;;;1.55;;
56233;SDS011;42141;53.240;6.580;2022-08-03T03:51:22;6.78;;;1.35;;
56233;SDS011;42141;53.240;6.580;2022-08-03T03:53:57;7.20;;;1.50;;
56233;SDS011;42141;53.240;6.580;2022-08-03T03:56:25;4.60;;;1.63;;
56233;SDS011;42141;53.240;6.580;2022-08-03T03:58:51;3.45;;;1.13;;
56233;SDS011;42141;53.240;6.580;2022-08-03T04:01:17;4.88;;;1.30;;
56233;SDS011;42141;53.240;6.580;2022-08-03T04:03:43;5.78;;;1.40;;
56233;SDS011;42141;53.240;6.580;2022-08-03T04:06:09;3.78;;;1.27;;
56233;SDS011;42141;53.240;6.580;2022-08-03T04:08:54;5.03;;;1.70;;
56233;SDS011;42141;53.240;6.580;2022-08-03T04:11:40;9.57;;;3.72;;
56233;SDS011;42141;53.240;6.580;2022-08-03T04:17:00;15.65;;;1.73;;
56233;SDS011;42141;53.240;6.580;2022-08-03T04:19:44;4.10;;;1.20;;
56233;SDS011;42141;53.240;6.580;2022-08-03T04:22:16;2.50;;;1.08;;
56233;SDS011;42141;53.240;6.580;2022-08-03T04:25:00;6.03;;;1.80;;
56233;SDS011;42141;53.240;6.580;2022-08-03T04:27:32;4.15;;;1.63;;
56233;SDS011;42141;53.240;6.580;2022-08-03T04:30:03;4.60;;;1.52;;
56233;SDS011;42141;53.240;6.580;2022-08-03T04:32:29;12.27;;;1.25;;
56233;SDS011;42141;53.240;6.580;2022-08-03T04:34:56;7.75;;;2.42;;
56233;SDS011;42141;53.240;6.580;2022-08-03T04:37:37;8.27;;;1.80;;
56233;SDS011;42141;53.240;6.580;2022-08-03T04:40:06;10.50;;;1.80;;
56233;SDS011;42141;53.240;6.580;2022-08-03T04:42:35;9.02;;;1.75;;
56233;SDS011;42141;53.240;6.580;2022-08-03T04:45:04;5.78;;;2.03;;
56233;SDS011;42141;53.240;6.580;2022-08-03T04:47:32;7.95;;;2.00;;
56233;SDS011;42141;53.240;6.580;2022-08-03T04:50:02;11.50;;;1.80;;
56233;SDS011;42141;53.240;6.580;2022-08-03T04:52:29;7.85;;;2.15;;
56233;SDS011;42141;53.240;6.580;2022-08-03T04:54:55;4.57;;;1.60;;
56233;SDS011;42141;53.240;6.580;2022-08-03T04:57:21;6.60;;;1.80;;
56233;SDS011;42141;53.240;6.580;2022-08-03T04:59:47;5.78;;;1.38;;
56233;SDS011;42141;53.240;6.580;2022-08-03T05:02:17;5.75;;;1.60;;
56233;SDS011;42141;53.240;6.580;2022-08-03T05:04:42;9.90;;;2.70;;
56233;SDS011;42141;53.240;6.580;2022-08-03T05:07:11;12.95;;;1.73;;
56233;SDS011;42141;53.240;6.580;2022-08-03T05:09:37;6.90;;;1.67;;
56233;SDS011;42141;53.240;6.580;2022-08-03T05:12:03;9.95;;;2.08;;
56233;SDS011;42141;53.240;6.580;2022-08-03T05:14:29;5.43;;;1.75;;
56233;SDS011;42141;53.240;6.580;2022-08-03T05:16:55;6.20;;;1.27;;
56233;SDS011;42141;53.240;6.580;2022-08-03T05:19:21;9.30;;;2.30;;
56233;SDS011;42141;53.240;6.580;2022-08-03T05:21:46;7.80;;;2.60;;
56233;SDS011;42141;53.240;6.580;2022-08-03T05:24:12;9.05;;;2.55;;
56233;SDS011;42141;53.240;6.580;2022-08-03T05:26:38;8.38;;;1.40;;
56233;SDS011;42141;53.240;6.580;2022-08-03T05:29:03;6.07;;;1.58;;
56233;SDS011;42141;53.240;6.580;2022-08-03T05:31:29;8.23;;;1.85;;
56233;SDS011;42141;53.240;6.580;2022-08-03T05:33:55;6.78;;;1.55;;
56233;SDS011;42141;53.240;6.580;2022-08-03T05:36:21;5.35;;;1.85;;
56233;SDS011;42141;53.240;6.580;2022-08-03T05:38:47;7.70;;;1.63;;
56233;SDS011;42141;53.240;6.580;2022-08-03T05:41:12;9.73;;;1.90;;
56233;SDS011;42141;53.240;6.580;2022-08-03T05:43:38;8.88;;;2.17;;
56233;SDS011;42141;53.240;6.580;2022-08-03T05:46:04;8.00;;;1.73;;
56233;SDS011;42141;53.240;6.580;2022-08-03T05:48:29;7.05;;;1.70;;
56233;SDS011;42141;53.240;6.580;2022-08-03T05:50:55;9.32;;;1.98;;
56233;SDS011;42141;53.240;6.580;2022-08-03T05:53:21;11.85;;;2.05;;
56233;SDS011;42141;53.240;6.580;2022-08-03T05:55:46;11.23;;;2.47;;
56233;SDS011;42141;53.240;6.580;2022-08-03T05:58:12;7.68;;;1.92;;
56233;SDS011;42141;53.240;6.580;2022-08-03T06:00:38;9.23;;;1.88;;
56233;SDS011;42141;53.240;6.580;2022-08-03T06:03:03;12.43;;;2.10;;
56233;SDS011;42141;53.240;6.580;2022-08-03T06:05:29;7.80;;;2.00;;
56233;SDS011;42141;53.240;6.580;2022-08-03T06:07:55;9.45;;;2.67;;
56233;SDS011;42141;53.240;6.580;2022-08-03T06:10:21;8.77;;;1.80;;
56233;SDS011;42141;53.240;6.580;2022-08-03T06:12:46;5.60;;;1.65;;
56233;SDS011;42141;53.240;6.580;2022-08-03T06:15:13;7.57;;;1.50;;
56233;SDS011;42141;53.240;6.580;2022-08-03T06:17:46;10.82;;;1.67;;
56233;SDS011;42141;53.240;6.580;2022-08-03T06:20:17;9.65;;;1.60;;
56233;SDS011;42141;53.240;6.580;2022-08-03T06:22:47;6.82;;;1.85;;
56233;SDS011;42141;53.240;6.580;2022-08-03T06:25:13;8.40;;;2.10;;
56233;SDS011;42141;53.240;6.580;2022-08-03T06:27:39;12.05;;;2.00;;
56233;SDS011;42141;53.240;6.580;2022-08-03T06:30:08;6.25;;;1.75;;
56233;SDS011;42141;53.240;6.580;2022-08-03T06:32:38;12.93;;;2.08;;
56233;SDS011;42141;53.240;6.580;2022-08-03T06:35:05;8.75;;;2.25;;
56233;SDS011;42141;53.240;6.580;2022-08-03T06:37:40;9.60;;;1.58;;
56233;SDS011;42141;53.240;6.580;2022-08-03T06:40:08;17.10;;;2.08;;
56233;SDS011;42141;53.240;6.580;2022-08-03T06:42:35;10.00;;;2.03;;
56233;SDS011;42141;53.240;6.580;2022-08-03T06:45:01;11.80;;;2.00;;
56233;SDS011;42141;53.240;6.580;2022-08-03T06:47:28;8.82;;;1.73;;
56233;SDS011;42141;53.240;6.580;2022-08-03T06:49:53;14.43;;;2.53;;
56233;SDS011;42141;53.240;6.580;2022-08-03T06:52:19;9.38;;;2.45;;
56233;SDS011;42141;53.240;6.580;2022-08-03T06:54:45;14.65;;;2.83;;
56233;SDS011;42141;53.240;6.580;2022-08-03T06:57:10;10.63;;;2.08;;
56233;SDS011;42141;53.240;6.580;2022-08-03T06:59:37;10.23;;;1.70;;
56233;SDS011;42141;53.240;6.580;2022-08-03T07:02:02;4.95;;;1.48;;
56233;SDS011;42141;53.240;6.580;2022-08-03T07:04:29;10.20;;;2.08;;
56233;SDS011;42141;53.240;6.580;2022-08-03T07:06:54;8.65;;;1.73;;
56233;SDS011;42141;53.240;6.580;2022-08-03T07:09:20;8.15;;;2.47;;
56233;SDS011;42141;53.240;6.580;2022-08-03T07:11:46;7.15;;;1.73;;
56233;SDS011;42141;53.240;6.580;2022-08-03T07:14:12;6.63;;;2.05;;
56233;SDS011;42141;53.240;6.580;2022-08-03T07:16:37;10.65;;;2.58;;
56233;SDS011;42141;53.240;6.580;2022-08-03T07:19:03;9.25;;;2.38;;
56233;SDS011;42141;53.240;6.580;2022-08-03T07:21:29;11.43;;;1.88;;
56233;SDS011;42141;53.240;6.580;2022-08-03T07:23:54;7.68;;;2.20;;
56233;SDS011;42141;53.240;6.580;2022-08-03T07:26:20;7.50;;;1.67;;
56233;SDS011;42141;53.240;6.580;2022-08-03T07:28:46;9.65;;;1.98;;
56233;SDS011;42141;53.240;6.580;2022-08-03T07:31:11;11.45;;;2.03;;
56233;SDS011;42141;53.240;6.580;2022-08-03T07:33:37;9.70;;;1.98;;
56233;SDS011;42141;53.240;6.580;2022-08-03T07:36:03;8.18;;;2.15;;
56233;SDS011;42141;53.240;6.580;2022-08-03T07:38:29;7.22;;;1.77;;
56233;SDS011;42141;53.240;6.580;2022-08-03T07:40:54;8.00;;;1.60;;
56233;SDS011;42141;53.240;6.580;2022-08-03T07:43:20;12.38;;;1.95;;
56233;SDS011;42141;53.240;6.580;2022-08-03T07:45:46;7.68;;;1.98;;
56233;SDS011;42141;53.240;6.580;2022-08-03T07:48:12;7.47;;;1.70;;
56233;SDS011;42141;53.240;6.580;2022-08-03T07:50:38;14.50;;;2.33;;
56233;SDS011;42141;53.240;6.580;2022-08-03T07:53:04;8.25;;;1.80;;
56233;SDS011;42141;53.240;6.580;2022-08-03T07:55:29;9.77;;;2.28;;
56233;SDS011;42141;53.240;6.580;2022-08-03T07:58:02;14.57;;;2.72;;
56233;SDS011;42141;53.240;6.580;2022-08-03T08:00:33;5.47;;;1.98;;
56233;SDS011;42141;53.240;6.580;2022-08-03T08:02:59;11.70;;;2.22;;
56233;SDS011;42141;53.240;6.580;2022-08-03T08:05:25;6.63;;;1.45;;
56233;SDS011;42141;53.240;6.580;2022-08-03T08:07:53;13.10;;;2.28;;
56233;SDS011;42141;53.240;6.580;2022-08-03T08:10:22;8.23;;;2.28;;
56233;SDS011;42141;53.240;6.580;2022-08-03T08:12:48;12.40;;;2.13;;
56233;SDS011;42141;53.240;6.580;2022-08-03T08:15:14;9.23;;;3.05;;
56233;SDS011;42141;53.240;6.580;2022-08-03T08:17:44;8.05;;;2.38;;
56233;SDS011;42141;53.240;6.580;2022-08-03T08:20:19;9.23;;;2.20;;
56233;SDS011;42141;53.240;6.580;2022-08-03T08:22:46;6.50;;;2.08;;
56233;SDS011;42141;53.240;6.580;2022-08-03T08:25:12;6.88;;;2.17;;
56233;SDS011;42141;53.240;6.580;2022-08-03T08:27:44;10.18;;;2.10;;
56233;SDS011;42141;53.240;6.580;2022-08-03T08:30:12;12.60;;;2.92;;
56233;SDS011;42141;53.240;6.580;2022-08-03T08:32:39;10.57;;;2.33;;
56233;SDS011;42141;53.240;6.580;2022-08-03T08:35:05;11.13;;;2.10;;
56233;SDS011;42141;53.240;6.580;2022-08-03T08:37:32;9.45;;;2.03;;
56233;SDS011;42141;53.240;6.580;2022-08-03T08:39:58;8.63;;;2.03;;
56233;SDS011;42141;53.240;6.580;2022-08-03T08:42:24;11.65;;;2.60;;
56233;SDS011;42141;53.240;6.580;2022-08-03T08:44:50;10.77;;;2.80;;
56233;SDS011;42141;53.240;6.580;2022-08-03T08:47:21;14.75;;;1.70;;
56233;SDS011;42141;53.240;6.580;2022-08-03T08:49:49;7.53;;;2.38;;
56233;SDS011;42141;53.240;6.580;2022-08-03T08:52:18;7.80;;;2.03;;
56233;SDS011;42141;53.240;6.580;2022-08-03T08:54:48;8.10;;;2.10;;
56233;SDS011;42141;53.240;6.580;2022-08-03T08:57:14;7.53;;;2.38;;
56233;SDS011;42141;53.240;6.580;2022-08-03T08:59:41;6.18;;;2.08;;
56233;SDS011;42141;53.240;6.580;2022-08-03T09:02:08;7.05;;;1.80;;
56233;SDS011;42141;53.240;6.580;2022-08-03T09:04:34;5.90;;;2.35;;
56233;SDS011;42141;53.240;6.580;2022-08-03T09:07:02;11.95;;;2.40;;
56233;SDS011;42141;53.240;6.580;2022-08-03T09:09:29;8.90;;;1.88;;
56233;SDS011;42141;53.240;6.580;2022-08-03T09:11:55;6.57;;;1.50;;
56233;SDS011;42141;53.240;6.580;2022-08-03T09:14:21;8.23;;;1.90;;
56233;SDS011;42141;53.240;6.580;2022-08-03T09:16:57;10.98;;;2.72;;
56233;SDS011;42141;53.240;6.580;2022-08-03T09:19:26;7.75;;;2.13;;
56233;SDS011;42141;53.240;6.580;2022-08-03T09:24:57;9.65;;;2.72;;
56233;SDS011;42141;53.240;6.580;2022-08-03T09:27:24;6.72;;;1.88;;
56233;SDS011;42141;53.240;6.580;2022-08-03T09:29:50;10.65;;;1.75;;
56233;SDS011;42141;53.240;6.580;2022-08-03T09:32:21;7.18;;;1.77;;
56233;SDS011;42141;53.240;6.580;2022-08-03T09:34:49;7.80;;;1.77;;
56233;SDS011;42141;53.240;6.580;2022-08-03T09:37:16;10.23;;;2.50;;
56233;SDS011;42141;53.240;6.580;2022-08-03T09:39:44;11.00;;;2.78;;
56233;SDS011;42141;53.240;6.580;2022-08-03T09:42:15;7.50;;;2.03;;
56233;SDS011;42141;53.240;6.580;2022-08-03T09:44:46;7.53;;;2.13;;
56233;SDS011;42141;53.240;6.580;2022-08-03T09:47:13;10.05;;;2.92;;
56233;SDS011;42141;53.240;6.580;2022-08-03T09:49:57;7.03;;;2.00;;
56233;SDS011;42141;53.240;6.580;2022-08-03T09:52:30;5.72;;;1.88;;
56233;SDS011;42141;53.240;6.580;2022-08-03T09:54:58;6.70;;;2.55;;
56233;SDS011;42141;53.240;6.580;2022-08-03T09:57:25;9.27;;;2.00;;
56233;SDS011;42141;53.240;6.580;2022-08-03T09:59:52;6.68;;;1.90;;
56233;SDS011;42141;53.240;6.580;2022-08-03T10:02:27;9.75;;;2.78;;
56233;SDS011;42141;53.240;6.580;2022-08-03T10:04:53;13.55;;;3.38;;
56233;SDS011;42141;53.240;6.580;2022-08-03T10:07:19;7.63;;;2.35;;
56233;SDS011;42141;53.240;6.580;2022-08-03T10:10:19;10.68;;;2.72;;
56233;SDS011;42141;53.240;6.580;2022-08-03T10:12:39;8.50;;;2.30;;
56233;SDS011;42141;53.240;6.580;2022-08-03T10:15:07;8.68;;;2.33;;
56233;SDS011;42141;53.240;6.580;2022-08-03T10:17:34;6.00;;;2.00;;
56233;SDS011;42141;53.240;6.580;2022-08-03T10:20:00;8.68;;;2.65;;
56233;SDS011;42141;53.240;6.580;2022-08-03T10:22:27;9.70;;;2.20;;
56233;SDS011;42141;53.240;6.580;2022-08-03T10:27:37;5.90;;;2.20;;
56233;SDS011;42141;53.240;6.580;2022-08-03T10:30:06;7.15;;;1.88;;
56233;SDS011;42141;53.240;6.580;2022-08-03T10:32:37;11.50;;;2.28;;
56233;SDS011;42141;53.240;6.580;2022-08-03T10:35:13;9.05;;;2.05;;
56233;SDS011;42141;53.240;6.580;2022-08-03T10:37:41;7.25;;;1.92;;
56233;SDS011;42141;53.240;6.580;2022-08-03T10:40:13;7.97;;;2.08;;
56233;SDS011;42141;53.240;6.580;2022-08-03T10:42:41;8.20;;;2.00;;
56233;SDS011;42141;53.240;6.580;2022-08-03T10:45:11;10.38;;;2.20;;
56233;SDS011;42141;53.240;6.580;2022-08-03T10:47:44;9.18;;;2.72;;
56233;SDS011;42141;53.240;6.580;2022-08-03T10:50:14;10.35;;;2.90;;
56233;SDS011;42141;53.240;6.580;2022-08-03T10:52:54;15.10;;;2.58;;
56233;SDS011;42141;53.240;6.580;2022-08-03T10:55:33;7.78;;;2.22;;
56233;SDS011;42141;53.240;6.580;2022-08-03T11:01:06;12.27;;;2.35;;
56233;SDS011;42141;53.240;6.580;2022-08-03T11:03:33;10.63;;;2.20;;
56233;SDS011;42141;53.240;6.580;2022-08-03T11:06:20;9.18;;;2.45;;
56233;SDS011;42141;53.240;6.580;2022-08-03T11:08:49;14.02;;;3.08;;
56233;SDS011;42141;53.240;6.580;2022-08-03T11:11:35;11.75;;;2.55;;
56233;SDS011;42141;53.240;6.580;2022-08-03T11:14:03;7.25;;;3.13;;
56233;SDS011;42141;53.240;6.580;2022-08-03T11:16:36;8.02;;;2.13;;
56233;SDS011;42141;53.240;6.580;2022-08-03T11:19:07;10.75;;;3.15;;
56233;SDS011;42141;53.240;6.580;2022-08-03T11:29:52;8.20;;;3.30;;
56233;SDS011;42141;53.240;6.580;2022-08-03T11:35:20;16.33;;;3.17;;
56233;SDS011;42141;53.240;6.580;2022-08-03T11:42:57;18.20;;;3.92;;
56233;SDS011;42141;53.240;6.580;2022-08-03T11:45:23;11.25;;;3.67;;
56233;SDS011;42141;53.240;6.580;2022-08-03T11:47:51;13.07;;;4.07;;
56233;SDS011;42141;53.240;6.580;2022-08-03T11:50:19;13.55;;;3.35;;
56233;SDS011;42141;53.240;6.580;2022-08-03T11:52:45;11.60;;;3.33;;
56233;SDS011;42141;53.240;6.580;2022-08-03T11:55:12;9.63;;;2.50;;
56233;SDS011;42141;53.240;6.580;2022-08-03T11:57:39;10.15;;;3.10;;
56233;SDS011;42141;53.240;6.580;2022-08-03T12:00:18;15.57;;;3.53;;
56233;SDS011;42141;53.240;6.580;2022-08-03T12:02:59;14.73;;;3.90;;
56233;SDS011;42141;53.240;6.580;2022-08-03T12:06:01;13.90;;;4.13;;
56233;SDS011;42141;53.240;6.580;2022-08-03T12:10:51;12.70;;;3.53;;
56233;SDS011;42141;53.240;6.580;2022-08-03T12:13:18;13.80;;;3.83;;
56233;SDS011;42141;53.240;6.580;2022-08-03T12:15:55;13.02;;;3.47;;
56233;SDS011;42141;53.240;6.580;2022-08-03T12:18:23;10.57;;;2.65;;
56233;SDS011;42141;53.240;6.580;2022-08-03T12:20:50;9.25;;;3.78;;
56233;SDS011;42141;53.240;6.580;2022-08-03T12:23:17;10.55;;;2.70;;
56233;SDS011;42141;53.240;6.580;2022-08-03T12:25:44;12.68;;;3.28;;
56233;SDS011;42141;53.240;6.580;2022-08-03T12:28:18;8.82;;;2.80;;
56233;SDS011;42141;53.240;6.580;2022-08-03T12:30:48;20.27;;;3.63;;
56233;SDS011;42141;53.240;6.580;2022-08-03T12:35:46;16.55;;;3.70;;
56233;SDS011;42141;53.240;6.580;2022-08-03T12:38:33;13.57;;;2.55;;
56233;SDS011;42141;53.240;6.580;2022-08-03T12:41:01;13.45;;;3.13;;
56233;SDS011;42141;53.240;6.580;2022-08-03T12:43:33;10.57;;;2.78;;
56233;SDS011;42141;53.240;6.580;2022-08-03T12:46:06;9.95;;;2.92;;
56233;SDS011;42141;53.240;6.580;2022-08-03T12:48:34;10.95;;;2.47;;
56233;SDS011;42141;53.240;6.580;2022-08-03T12:51:07;15.75;;;3.10;;
56233;SDS011;42141;53.240;6.580;2022-08-03T12:53:34;11.85;;;2.95;;
56233;SDS011;42141;53.240;6.580;2022-08-03T12:56:03;14.50;;;2.88;;
56233;SDS011;42141;53.240;6.580;2022-08-03T12:58:36;17.17;;;3.33;;
56233;SDS011;42141;53.240;6.580;2022-08-03T13:01:03;12.65;;;2.92;;
56233;SDS011;42141;53.240;6.580;2022-08-03T13:03:45;14.98;;;3.30;;
56233;SDS011;42141;53.240;6.580;2022-08-03T13:06:19;11.55;;;3.45;;
56233;SDS011;42141;53.240;6.580;2022-08-03T13:08:49;14.50;;;3.28;;
56233;SDS011;42141;53.240;6.580;2022-08-03T13:11:31;11.02;;;3.45;;
56233;SDS011;42141;53.240;6.580;2022-08-03T13:13:57;11.88;;;3.45;;
56233;SDS011;42141;53.240;6.580;2022-08-03T13:16:23;16.08;;;3.97;;
56233;SDS011;42141;53.240;6.580;2022-08-03T13:18:49;8.98;;;2.70;;
56233;SDS011;42141;53.240;6.580;2022-08-03T13:21:17;10.52;;;3.40;;
56233;SDS011;42141;53.240;6.580;2022-08-03T13:23:44;13.25;;;3.88;;
56233;SDS011;42141;53.240;6.580;2022-08-03T13:26:10;11.57;;;3.42;;
56233;SDS011;42141;53.240;6.580;2022-08-03T13:28:37;15.25;;;3.47;;
56233;SDS011;42141;53.240;6.580;2022-08-03T13:31:03;16.50;;;3.20;;
56233;SDS011;42141;53.240;6.580;2022-08-03T13:33:29;9.43;;;3.75;;
56233;SDS011;42141;53.240;6.580;2022-08-03T13:35:55;9.95;;;3.53;;
56233;SDS011;42141;53.240;6.580;2022-08-03T13:38:20;9.40;;;2.33;;
56233;SDS011;42141;53.240;6.580;2022-08-03T13:40:46;11.68;;;3.45;;
56233;SDS011;42141;53.240;6.580;2022-08-03T13:43:12;12.30;;;3.20;;
56233;SDS011;42141;53.240;6.580;2022-08-03T13:45:38;14.20;;;3.17;;
56233;SDS011;42141;53.240;6.580;2022-08-03T13:48:04;6.65;;;2.85;;
56233;SDS011;42141;53.240;6.580;2022-08-03T13:50:29;10.98;;;2.65;;
56233;SDS011;42141;53.240;6.580;2022-08-03T13:52:56;10.88;;;2.58;;
56233;SDS011;42141;53.240;6.580;2022-08-03T13:55:22;6.80;;;2.30;;
56233;SDS011;42141;53.240;6.580;2022-08-03T13:57:48;11.73;;;2.55;;
56233;SDS011;42141;53.240;6.580;2022-08-03T14:00:14;10.80;;;2.67;;
56233;SDS011;42141;53.240;6.580;2022-08-03T14:02:41;10.48;;;2.35;;
56233;SDS011;42141;53.240;6.580;2022-08-03T14:05:07;10.95;;;2.53;;
56233;SDS011;42141;53.240;6.580;2022-08-03T14:07:33;7.00;;;2.53;;
56233;SDS011;42141;53.240;6.580;2022-08-03T14:09:59;9.73;;;2.22;;
56233;SDS011;42141;53.240;6.580;2022-08-03T14:12:26;8.38;;;2.08;;
56233;SDS011;42141;53.240;6.580;2022-08-03T14:14:52;8.20;;;2.70;;
56233;SDS011;42141;53.240;6.580;2022-08-03T14:17:18;12.55;;;2.00;;
56233;SDS011;42141;53.240;6.580;2022-08-03T14:19:44;8.60;;;2.33;;
56233;SDS011;42141;53.240;6.580;2022-08-03T14:22:09;13.35;;;3.08;;
56233;SDS011;42141;53.240;6.580;2022-08-03T14:24:35;6.95;;;2.10;;
56233;SDS011;42141;53.240;6.580;2022-08-03T14:27:01;12.75;;;3.35;;
56233;SDS011;42141;53.240;6.580;2022-08-03T14:29:26;12.50;;;3.35;;
56233;SDS011;42141;53.240;6.580;2022-08-03T14:31:52;7.70;;;2.67;;
56233;SDS011;42141;53.240;6.580;2022-08-03T14:34:18;4.20;;;2.03;;
56233;SDS011;42141;53.240;6.580;2022-08-03T14:36:43;12.75;;;3.13;;
56233;SDS011;42141;53.240;6.580;2022-08-03T14:39:11;7.47;;;2.03;;
56233;SDS011;42141;53.240;6.580;2022-08-03T14:41:37;10.00;;;2.85;;
56233;SDS011;42141;53.240;6.580;2022-08-03T14:44:03;9.25;;;3.72;;
56233;SDS011;42141;53.240;6.580;2022-08-03T14:46:29;6.75;;;2.47;;
56233;SDS011;42141;53.240;6.580;2022-08-03T14:48:56;17.70;;;4.47;;
56233;SDS011;42141;53.240;6.580;2022-08-03T14:51:22;10.52;;;2.88;;
56233;SDS011;42141;53.240;6.580;2022-08-03T14:53:48;12.27;;;5.15;;
56233;SDS011;42141;53.240;6.580;2022-08-03T14:56:14;12.63;;;3.10;;
56233;SDS011;42141;53.240;6.580;2022-08-03T14:58:40;8.77;;;2.50;;
56233;SDS011;42141;53.240;6.580;2022-08-03T15:01:05;12.45;;;3.13;;
56233;SDS011;42141;53.240;6.580;2022-08-03T15:03:32;6.05;;;2.70;;
56233;SDS011;42141;53.240;6.580;2022-08-03T15:05:58;9.55;;;2.45;;
56233;SDS011;42141;53.240;6.580;2022-08-03T15:08:24;6.28;;;2.90;;
56233;SDS011;42141;53.240;6.580;2022-08-03T15:10:51;9.10;;;2.53;;
56233;SDS011;42141;53.240;6.580;2022-08-03T15:13:19;7.35;;;1.80;;
56233;SDS011;42141;53.240;6.580;2022-08-03T15:15:45;5.00;;;2.38;;
56233;SDS011;42141;53.240;6.580;2022-08-03T15:18:12;7.20;;;2.50;;
56233;SDS011;42141;53.240;6.580;2022-08-03T15:20:37;9.57;;;2.40;;
56233;SDS011;42141;53.240;6.580;2022-08-03T15:23:03;7.05;;;1.88;;
56233;SDS011;42141;53.240;6.580;2022-08-03T15:25:29;6.88;;;2.28;;
56233;SDS011;42141;53.240;6.580;2022-08-03T15:27:54;10.20;;;2.53;;
56233;SDS011;42141;53.240;6.580;2022-08-03T15:30:20;5.90;;;2.45;;
56233;SDS011;42141;53.240;6.580;2022-08-03T15:32:46;5.97;;;1.90;;
56233;SDS011;42141;53.240;6.580;2022-08-03T15:35:12;5.05;;;2.05;;
56233;SDS011;42141;53.240;6.580;2022-08-03T15:37:37;7.15;;;1.85;;
56233;SDS011;42141;53.240;6.580;2022-08-03T15:40:03;10.38;;;1.88;;